Ameriflight SW4 at San Luis Obispo on Feb 6th 2018, runway excursion on landing

Last Update: February 7, 2018 / 17:50:52 GMT/Zulu time

Bookmark this article
Incident Facts

Date of incident
Feb 6, 2018

Classification
Incident

Aircraft Registration
N529AF

ICAO Type Designator
SW4

Airport ICAO Code
KSBP

An Ameriflight Swearingen SA-227-AC Metro III on behalf of UPS, registration N529AF performing freight flight A8-1938 from Ontario,CA to San Luis Obispo,CA (USA), landed on San Luis Obispo's runway 11 at 09:49L (17:49Z) but went right off the runway about abeam the opposite aiming marker (for runway 29) and came to a stop with all gear on soft ground. There were no injuries and no damage.

The aircraft was towed back onto paved surface, the runway re-opened again.

Metars:
KSBP 061856Z 00000KT 10SM CLR 24/06 A3003 RMK AO2 SLP167 T02440061=
KSBP 061756Z 07005KT 10SM CLR 24/06 A3002 RMK AO2 SLP165 T02390061 10239 20128 51018=
KSBP 061753Z VRB06KT 10SM CLR 23/06 A3002 RMK AO2=
KSBP 061656Z 08007KT 10SM CLR 22/07 A3002 RMK AO2 SLP163 T02170072=
KSBP 061556Z 19004KT 10SM CLR 17/05 A3000 RMK AO2 SLP156 T01670050=
KSBP 061456Z 00000KT 10SM CLR 16/03 A2997 RMK AO2 SLP147 T01560033 53018=
KSBP 061356Z 17004KT 10SM CLR 17/03 A2994 RMK AO2 SLP137 T01720028=
Aircraft Registration Data New!
Registration mark
N529AF
Country of Registration
United States
Date of Registration
MhpegmcldgAeddiei Subscribe to unlock
Manufacturer
FAIRCHILD
Aircraft Model / Type
SA227-AC
Number of Seats
ICAO Aircraft Type
SW4
Year of Manufacture
Serial Number
Aircraft Address / Mode S Code (HEX)
Engine Count
Engine Manufacturer
Engine Model
Main Owner
Pjf bmleggqcmkf enif qklkimnfblgjepmflcgilehgAilmiAAglgq iedgjcihcgdcekhmkAkAqlhjfn Subscribe to unlock
Incident Facts

Date of incident
Feb 6, 2018

Classification
Incident

Aircraft Registration
N529AF

ICAO Type Designator
SW4

Airport ICAO Code
KSBP

This article is published under license from Avherald.com. © of text by Avherald.com.
Article source

You can read 4 more free articles without a subscription.

Subscribe now and continue reading without any limits!

Are you a subscriber?
Login
Subscribe

Read unlimited articles and receive our daily update briefing. Gain better insights into what is happening in commercial aviation safety.

Free newsletter

Want to know more and stay ahead? Get our free weekly newsletter and join 4944 existing subscribers.

By subscribing, you accept our terms and conditions and confirm that you've read our privacy policy.

Send tip

Support AeroInside by sending a small tip amount.

Newest articles

Subscribe today

Are you researching aviation incidents? Get access to AeroInside Insights, unlimited read access and receive the daily newsletter.

Pick your plan and subscribe

Partner

Blockaviation logo

A new way to document and demonstrate airworthiness compliance and aircraft value. Find out more.

Virtual Speech logo

ELITE Simulation Solutions is a leading global provider of Flight Simulation Training Devices, IFR training software as well as flight controls and related services. Find out more.

Get updates

Never miss an article from AeroInside. Subscribe to our free weekly newsletter and join 4944 existing subscribers.

By subscribing, you accept our terms and conditions and that you've read our privacy policy.

AeroInside Blog
Popular aircraft
Airbus A320
Boeing 737-800
Boeing 737-800 MAX
Popular airlines
American Airlines
United
Delta
Air Canada
Lufthansa
British Airways